createdAt,value
2019-03-26T00:00:39.777Z,11.45
2019-03-26T00:03:08.781Z,12.65
2019-03-26T00:05:37.236Z,13.50
2019-03-26T00:08:05.995Z,14.45
2019-03-26T00:10:34.704Z,13.20
2019-03-26T00:13:03.286Z,13.62
2019-03-26T00:15:33.351Z,15.48
2019-03-26T00:18:01.756Z,15.10
2019-03-26T00:20:30.212Z,19.25
2019-03-26T00:22:58.734Z,16.70
2019-03-26T00:25:27.562Z,15.88
2019-03-26T00:27:56.016Z,18.27
2019-03-26T00:30:25.112Z,16.60
2019-03-26T00:32:53.841Z,16.12
2019-03-26T00:35:22.325Z,16.45
2019-03-26T00:37:50.759Z,15.63
2019-03-26T00:40:19.530Z,14.90
2019-03-26T00:42:48.283Z,13.60
2019-03-26T00:45:16.732Z,16.20
2019-03-26T00:47:45.168Z,18.07
2019-03-26T00:50:13.599Z,15.75
2019-03-26T00:52:42.380Z,16.37
2019-03-26T00:55:22.080Z,17.57
2019-03-26T00:57:41.206Z,16.30
2019-03-26T01:00:09.688Z,14.93
2019-03-26T01:02:38.473Z,16.77
2019-03-26T01:05:07.065Z,22.05
2019-03-26T01:07:35.485Z,16.15
2019-03-26T01:10:06.530Z,13.68
2019-03-26T01:12:34.936Z,16.55
2019-03-26T01:15:04.358Z,16.40
2019-03-26T01:17:32.855Z,14.28
2019-03-26T01:20:01.276Z,13.93
2019-03-26T01:22:29.704Z,16.30
2019-03-26T01:24:58.128Z,16.57
2019-03-26T01:27:26.600Z,13.93
2019-03-26T01:29:55.401Z,17.37
2019-03-26T01:32:23.808Z,18.57
2019-03-26T01:34:52.250Z,19.35
2019-03-26T01:37:20.651Z,17.92
2019-03-26T01:39:49.106Z,13.00
2019-03-26T01:42:17.512Z,19.45
2019-03-26T01:44:45.973Z,16.57
2019-03-26T01:47:14.473Z,14.40
2019-03-26T01:49:42.904Z,17.12
2019-03-26T01:52:11.318Z,14.90
2019-03-26T01:54:40.025Z,17.73
2019-03-26T01:57:08.456Z,20.82
2019-03-26T01:59:36.883Z,19.25
2019-03-26T02:02:05.748Z,18.32
2019-03-26T02:04:34.517Z,18.42
2019-03-26T02:07:02.936Z,18.40
2019-03-26T02:12:54.377Z,15.90
2019-03-26T02:15:26.932Z,20.95
2019-03-26T02:17:55.718Z,19.30
2019-03-26T02:20:24.119Z,16.73
2019-03-26T02:22:52.542Z,17.10
2019-03-26T02:25:21.323Z,18.95
2019-03-26T02:27:49.801Z,20.32
2019-03-26T02:30:18.222Z,19.20
2019-03-26T02:32:46.879Z,17.85
2019-03-26T02:35:18.411Z,17.75
2019-03-26T02:37:45.720Z,17.60
2019-03-26T02:40:14.150Z,18.45
2019-03-26T02:42:42.601Z,20.02
2019-03-26T02:45:11.037Z,17.80
2019-03-26T02:47:39.510Z,17.85
2019-03-26T02:50:07.987Z,18.52
2019-03-26T02:52:36.809Z,17.07
2019-03-26T02:55:05.556Z,18.00
2019-03-26T02:57:33.979Z,14.35
2019-03-26T03:00:02.463Z,17.98
2019-03-26T03:02:30.880Z,18.12
2019-03-26T03:04:59.440Z,16.90
2019-03-26T03:07:27.856Z,20.00
2019-03-26T03:09:56.546Z,15.60
2019-03-26T03:12:24.941Z,15.28
2019-03-26T03:14:53.684Z,15.05
2019-03-26T03:17:22.128Z,17.23
2019-03-26T03:19:50.817Z,15.80
2019-03-26T03:22:19.241Z,14.75
2019-03-26T03:24:47.678Z,14.83
2019-03-26T03:27:16.190Z,19.23
2019-03-26T03:29:44.997Z,13.85
2019-03-26T03:32:13.892Z,12.95
2019-03-26T03:34:42.302Z,16.93
2019-03-26T03:37:10.738Z,11.73
2019-03-26T03:39:39.133Z,14.05
2019-03-26T03:42:07.659Z,10.95
2019-03-26T03:44:36.132Z,13.85
2019-03-26T03:47:04.612Z,14.45
2019-03-26T03:49:33.034Z,12.45
2019-03-26T03:52:01.821Z,12.88
2019-03-26T03:54:30.241Z,10.50
2019-03-26T03:56:58.652Z,11.60
2019-03-26T03:59:27.589Z,11.97
2019-03-26T04:01:56.288Z,9.93
2019-03-26T04:04:25.045Z,13.28
2019-03-26T04:06:53.464Z,12.05
2019-03-26T04:09:21.938Z,10.60
2019-03-26T04:11:50.404Z,11.38
2019-03-26T04:14:18.812Z,11.08
2019-03-26T04:16:47.586Z,13.25
2019-03-26T04:19:16.066Z,8.73
2019-03-26T04:21:44.550Z,13.80
2019-03-26T04:24:13.629Z,9.20
2019-03-26T04:26:42.161Z,13.75
2019-03-26T04:29:10.611Z,13.50
2019-03-26T04:31:39.084Z,13.05
2019-03-26T04:34:07.506Z,12.28
2019-03-26T04:36:35.949Z,12.60
2019-03-26T04:39:05.549Z,14.85
2019-03-26T04:41:34.420Z,12.50
2019-03-26T04:44:02.829Z,11.22
2019-03-26T04:46:31.242Z,11.97
2019-03-26T04:48:59.982Z,12.30
2019-03-26T04:51:28.449Z,14.85
2019-03-26T04:53:56.861Z,12.53
2019-03-26T04:56:25.264Z,12.15
2019-03-26T04:58:53.701Z,16.77
2019-03-26T05:01:22.102Z,17.62
2019-03-26T05:03:50.869Z,12.82
2019-03-26T05:06:19.292Z,12.60
2019-03-26T05:08:48.011Z,12.55
2019-03-26T05:11:16.433Z,17.15
2019-03-26T05:13:44.940Z,13.78
2019-03-26T05:16:13.387Z,22.93
2019-03-26T05:18:41.924Z,20.32
2019-03-26T05:21:10.744Z,19.65
2019-03-26T05:23:39.169Z,18.92
2019-03-26T05:26:07.589Z,21.33
2019-03-26T05:28:35.996Z,22.15
2019-03-26T05:31:04.716Z,22.25
2019-03-26T05:33:33.219Z,21.07
2019-03-26T05:36:01.693Z,29.35
2019-03-26T05:38:30.107Z,25.23
2019-03-26T05:40:58.884Z,21.15
2019-03-26T05:43:27.395Z,24.57
2019-03-26T05:45:55.813Z,27.82
2019-03-26T05:48:24.293Z,26.20
2019-03-26T05:50:52.743Z,32.00
2019-03-26T05:53:21.217Z,27.80
2019-03-26T05:55:49.990Z,26.05
2019-03-26T05:58:18.421Z,31.37
2019-03-26T06:00:46.825Z,33.02
2019-03-26T06:03:15.344Z,30.08
2019-03-26T06:05:45.107Z,37.55
2019-03-26T06:08:13.836Z,29.70
2019-03-26T06:10:42.368Z,31.62
2019-03-26T06:13:10.843Z,29.40
2019-03-26T06:15:39.260Z,27.77
2019-03-26T06:18:07.672Z,30.75
2019-03-26T06:20:36.131Z,29.12
2019-03-26T06:23:04.626Z,34.75
2019-03-26T06:25:33.392Z,27.20
2019-03-26T06:28:01.874Z,29.45
2019-03-26T06:30:30.283Z,28.50
2019-03-26T06:32:59.000Z,27.30
2019-03-26T06:35:27.780Z,30.82
2019-03-26T06:37:56.548Z,28.77
2019-03-26T06:40:24.957Z,27.37
2019-03-26T06:42:53.391Z,32.23
2019-03-26T06:45:21.784Z,26.52
2019-03-26T06:47:50.502Z,26.93
2019-03-26T06:50:19.021Z,26.10
2019-03-26T06:52:47.845Z,26.80
2019-03-26T06:55:16.621Z,28.23
2019-03-26T06:57:45.197Z,26.02
2019-03-26T07:00:13.671Z,17.73
2019-03-26T07:02:44.975Z,24.18
2019-03-26T07:05:13.785Z,18.92
2019-03-26T07:07:42.552Z,22.65
2019-03-26T07:10:11.514Z,22.98
2019-03-26T07:12:40.174Z,22.20
2019-03-26T07:15:09.063Z,23.18
2019-03-26T07:17:37.846Z,17.95
2019-03-26T07:20:06.856Z,28.00
2019-03-26T07:22:35.737Z,20.40
2019-03-26T07:25:06.188Z,23.10
2019-03-26T07:27:34.624Z,17.05
2019-03-26T07:30:03.537Z,17.73
2019-03-26T07:32:31.959Z,23.10
2019-03-26T07:35:00.901Z,23.55
2019-03-26T07:37:29.339Z,23.15
2019-03-26T07:39:57.809Z,17.95
2019-03-26T07:42:26.262Z,21.27
2019-03-26T07:44:54.695Z,19.30
2019-03-26T07:47:23.122Z,16.70
2019-03-26T07:49:51.550Z,17.67
2019-03-26T07:52:19.965Z,15.03
2019-03-26T07:54:48.377Z,20.50
2019-03-26T07:57:17.163Z,26.00
2019-03-26T07:59:45.613Z,30.23
2019-03-26T08:02:14.034Z,22.73
2019-03-26T08:04:42.584Z,24.98
2019-03-26T08:07:11.339Z,15.98
2019-03-26T08:09:39.749Z,18.92
2019-03-26T08:12:08.152Z,23.18
2019-03-26T08:14:36.633Z,24.30
2019-03-26T08:17:05.396Z,22.70
2019-03-26T08:19:33.827Z,32.08
2019-03-26T08:22:02.546Z,23.40
2019-03-26T08:24:30.952Z,19.32
2019-03-26T08:26:59.369Z,14.90
2019-03-26T08:29:27.797Z,21.05
2019-03-26T08:31:56.493Z,15.78
2019-03-26T08:34:24.904Z,21.97
2019-03-26T08:36:53.408Z,19.40
2019-03-26T08:39:21.820Z,24.15
2019-03-26T08:41:50.247Z,14.85
2019-03-26T08:44:18.653Z,13.93
2019-03-26T08:46:47.164Z,15.03
2019-03-26T08:49:15.586Z,21.23
2019-03-26T08:51:44.276Z,17.82
2019-03-26T08:54:12.718Z,16.07
2019-03-26T08:56:41.162Z,22.75
2019-03-26T08:59:09.578Z,17.23
2019-03-26T09:01:37.976Z,19.52
2019-03-26T09:04:06.760Z,28.00
2019-03-26T09:06:35.180Z,12.68
2019-03-26T09:09:05.355Z,25.25
2019-03-26T09:11:34.112Z,36.00
2019-03-26T09:14:02.878Z,11.40
2019-03-26T09:16:31.652Z,12.18
2019-03-26T09:19:00.116Z,14.35
2019-03-26T09:21:28.545Z,20.90
2019-03-26T09:23:57.282Z,10.95
2019-03-26T09:26:25.685Z,12.70
2019-03-26T09:28:54.105Z,13.28
2019-03-26T09:31:22.512Z,12.07
2019-03-26T09:33:50.940Z,11.53
2019-03-26T09:36:19.350Z,15.43
2019-03-26T09:38:48.038Z,15.53
2019-03-26T09:41:16.515Z,13.45
2019-03-26T09:43:44.934Z,16.80
2019-03-26T09:46:13.747Z,13.65
2019-03-26T09:48:42.172Z,8.43
2019-03-26T09:51:11.057Z,12.78
2019-03-26T09:53:39.565Z,14.25
2019-03-26T09:56:08.312Z,9.88
2019-03-26T09:58:36.723Z,13.53
2019-03-26T10:01:05.204Z,10.00
2019-03-26T10:03:33.937Z,19.02
2019-03-26T10:06:02.676Z,16.05
2019-03-26T10:08:31.449Z,11.00
2019-03-26T10:11:00.129Z,22.87
2019-03-26T10:13:28.558Z,22.37
2019-03-26T10:15:57.285Z,18.02
2019-03-26T10:18:25.694Z,13.48
2019-03-26T10:20:54.107Z,16.05
2019-03-26T10:23:22.855Z,19.85
2019-03-26T10:25:51.308Z,18.32
2019-03-26T10:28:19.994Z,21.65
2019-03-26T10:30:48.493Z,20.85
2019-03-26T10:33:16.979Z,19.12
2019-03-26T10:35:45.430Z,14.30
2019-03-26T10:38:14.178Z,13.65
2019-03-26T10:40:42.980Z,11.88
2019-03-26T10:43:11.724Z,11.33
2019-03-26T10:45:40.123Z,14.23
2019-03-26T10:48:08.560Z,11.53
2019-03-26T10:50:37.332Z,12.93
2019-03-26T10:53:05.756Z,12.90
2019-03-26T10:55:34.209Z,21.57
2019-03-26T10:58:02.612Z,17.45
2019-03-26T11:00:31.032Z,20.75
2019-03-26T11:02:59.753Z,17.82
2019-03-26T11:05:28.521Z,18.45
2019-03-26T11:07:56.935Z,17.07
2019-03-26T11:10:25.339Z,15.55
2019-03-26T11:12:54.011Z,13.55
2019-03-26T11:15:22.430Z,15.40
2019-03-26T11:17:51.264Z,15.72
2019-03-26T11:20:19.691Z,14.35
2019-03-26T11:22:48.133Z,11.60
2019-03-26T11:25:16.972Z,15.63
2019-03-26T11:27:45.506Z,15.40
2019-03-26T11:30:15.747Z,22.07
2019-03-26T11:32:44.169Z,14.90
2019-03-26T11:35:12.629Z,16.40
2019-03-26T11:37:41.329Z,12.78
2019-03-26T11:40:10.103Z,12.88
2019-03-26T11:42:38.546Z,17.40
2019-03-26T11:45:08.655Z,15.20
2019-03-26T11:47:37.864Z,14.93
2019-03-26T11:50:06.639Z,15.85
2019-03-26T11:52:35.048Z,13.40
2019-03-26T11:55:04.487Z,11.28
2019-03-26T11:57:33.015Z,15.03
2019-03-26T12:00:01.496Z,8.73
2019-03-26T12:02:30.275Z,10.35
2019-03-26T12:04:58.872Z,11.28
2019-03-26T12:07:27.304Z,13.62
2019-03-26T12:09:55.722Z,11.18
2019-03-26T12:12:24.166Z,13.48
2019-03-26T12:14:52.916Z,12.25
2019-03-26T12:17:21.586Z,14.93
2019-03-26T12:19:50.001Z,10.58
2019-03-26T12:22:18.424Z,13.22
2019-03-26T12:24:46.881Z,11.78
2019-03-26T12:27:15.301Z,14.85
2019-03-26T12:29:43.788Z,17.85
2019-03-26T12:32:12.477Z,14.75
2019-03-26T12:34:42.138Z,11.08
2019-03-26T12:37:10.558Z,14.00
2019-03-26T12:39:39.320Z,13.75
2019-03-26T12:42:07.741Z,11.22
2019-03-26T12:44:36.238Z,10.48
2019-03-26T12:47:04.697Z,15.25
2019-03-26T12:49:33.104Z,12.28
2019-03-26T12:52:01.520Z,10.48
2019-03-26T12:54:30.312Z,12.73
2019-03-26T12:56:58.709Z,19.35
2019-03-26T12:59:27.159Z,12.78
2019-03-26T13:01:55.588Z,11.20
2019-03-26T13:04:24.039Z,15.65
2019-03-26T13:06:52.737Z,13.05
2019-03-26T13:09:21.131Z,12.47
2019-03-26T13:11:49.587Z,10.32
2019-03-26T13:14:18.012Z,5.62
2019-03-26T13:16:46.604Z,7.83
2019-03-26T13:19:15.083Z,8.20
2019-03-26T13:21:43.837Z,7.12
2019-03-26T13:24:12.297Z,6.40
2019-03-26T13:26:40.698Z,6.83
2019-03-26T13:29:09.347Z,7.72
2019-03-26T13:31:38.100Z,4.37
2019-03-26T13:34:06.516Z,6.50
2019-03-26T13:36:35.241Z,7.72
2019-03-26T13:39:05.542Z,7.03
2019-03-26T13:41:33.942Z,8.85
2019-03-26T13:44:02.693Z,7.72
2019-03-26T13:46:31.117Z,7.03
2019-03-26T13:48:59.524Z,6.58
2019-03-26T13:51:28.280Z,6.97
2019-03-26T13:53:56.675Z,7.78
2019-03-26T13:56:25.085Z,10.03
2019-03-26T13:58:53.496Z,8.20
2019-03-26T14:01:21.917Z,9.03
2019-03-26T14:03:50.320Z,8.98
2019-03-26T14:06:19.089Z,7.33
2019-03-26T14:08:50.275Z,12.23
2019-03-26T14:11:18.672Z,7.12
2019-03-26T14:13:47.460Z,7.70
2019-03-26T14:16:15.878Z,6.95
2019-03-26T14:18:44.436Z,5.70
2019-03-26T14:21:17.964Z,10.93
2019-03-26T14:23:46.783Z,10.15
2019-03-26T14:26:15.577Z,8.20
2019-03-26T14:28:44.020Z,6.25
2019-03-26T14:31:12.602Z,7.03
2019-03-26T14:33:41.060Z,4.67
2019-03-26T14:36:09.457Z,8.13
2019-03-26T14:38:38.151Z,5.75
2019-03-26T14:41:06.572Z,8.40
2019-03-26T14:43:35.274Z,8.08
2019-03-26T14:46:03.838Z,5.67
2019-03-26T14:48:32.504Z,9.25
2019-03-26T15:00:07.698Z,8.85
2019-03-26T15:02:36.111Z,11.15
2019-03-26T15:05:05.735Z,8.15
2019-03-26T15:07:34.563Z,11.78
2019-03-26T15:10:03.837Z,9.43
2019-03-26T15:12:32.621Z,9.05
2019-03-26T15:15:01.290Z,7.62
2019-03-26T15:17:29.783Z,7.28
2019-03-26T15:19:58.534Z,7.58
2019-03-26T15:22:27.315Z,7.35
2019-03-26T15:24:55.772Z,7.42
2019-03-26T15:27:24.188Z,7.15
2019-03-26T15:29:52.930Z,10.70
2019-03-26T15:32:21.675Z,10.03
2019-03-26T15:34:50.099Z,8.75
2019-03-26T15:37:18.822Z,7.60
2019-03-26T15:39:47.613Z,8.68
2019-03-26T15:42:16.031Z,7.83
2019-03-26T15:44:44.825Z,11.30
2019-03-26T15:47:13.285Z,10.00
2019-03-26T15:49:42.272Z,8.80
2019-03-26T15:52:10.774Z,8.08
2019-03-26T15:54:40.309Z,8.35
2019-03-26T15:57:08.785Z,8.73
2019-03-26T15:59:37.223Z,9.88
2019-03-26T16:02:05.695Z,7.42
2019-03-26T16:04:34.091Z,9.53
2019-03-26T16:07:02.851Z,9.33
2019-03-26T16:09:31.633Z,9.00
2019-03-26T16:12:00.051Z,7.12
2019-03-26T16:14:28.534Z,6.60
2019-03-26T16:16:56.949Z,8.30
2019-03-26T16:19:32.054Z,9.18
2019-03-26T16:21:55.521Z,10.32
2019-03-26T16:24:24.000Z,9.05
2019-03-26T16:26:52.472Z,7.72
2019-03-26T16:29:21.644Z,10.45
2019-03-26T16:31:50.156Z,8.75
2019-03-26T16:34:18.554Z,9.35
2019-03-26T16:36:58.856Z,10.03
2019-03-26T16:39:17.077Z,10.28
2019-03-26T16:41:49.243Z,10.55
2019-03-26T16:44:16.404Z,10.38
2019-03-26T16:46:45.130Z,10.98
2019-03-26T16:49:13.619Z,14.20
2019-03-26T16:51:42.287Z,10.58
2019-03-26T16:54:10.717Z,12.60
2019-03-26T16:56:39.167Z,12.15
2019-03-26T16:59:07.916Z,8.35
2019-03-26T17:01:36.392Z,10.45
2019-03-26T17:04:05.144Z,9.55
2019-03-26T17:06:33.904Z,11.55
2019-03-26T17:09:02.681Z,9.78
2019-03-26T17:11:31.106Z,8.18
2019-03-26T17:13:59.513Z,10.40
2019-03-26T17:16:27.932Z,8.05
2019-03-26T17:18:56.733Z,9.83
2019-03-26T17:21:25.224Z,7.17
2019-03-26T17:23:53.985Z,16.07
2019-03-26T17:26:22.392Z,13.03
2019-03-26T17:28:50.795Z,13.05
2019-03-26T17:31:19.238Z,10.58
2019-03-26T17:33:47.726Z,12.55
2019-03-26T17:36:16.464Z,12.03
2019-03-26T17:38:44.905Z,12.33
2019-03-26T17:41:13.324Z,8.80
2019-03-26T17:43:41.735Z,10.88
2019-03-26T17:46:10.151Z,14.18
2019-03-26T17:48:38.942Z,13.00
2019-03-26T17:51:07.623Z,8.78
2019-03-26T17:53:36.206Z,12.60
2019-03-26T17:56:04.594Z,13.48
2019-03-26T17:58:33.031Z,10.32
2019-03-26T18:01:01.797Z,12.82
2019-03-26T18:03:30.270Z,13.93
2019-03-26T18:05:59.017Z,12.68
2019-03-26T18:08:27.433Z,11.80
2019-03-26T18:10:56.902Z,9.98
2019-03-26T18:13:25.649Z,10.28
2019-03-26T18:15:54.064Z,12.93
2019-03-26T18:18:22.484Z,12.95
2019-03-26T18:20:51.259Z,17.60
2019-03-26T18:23:19.675Z,12.05
2019-03-26T18:25:48.095Z,10.53
2019-03-26T18:28:16.512Z,11.65
2019-03-26T18:30:44.999Z,13.53
2019-03-26T18:33:13.483Z,13.45
2019-03-26T18:35:41.898Z,9.30
2019-03-26T18:38:10.297Z,15.40
2019-03-26T18:40:38.816Z,11.45
2019-03-26T18:43:07.216Z,10.65
2019-03-26T18:45:35.903Z,7.33
2019-03-26T18:48:04.327Z,16.90
2019-03-26T18:50:32.760Z,9.93
2019-03-26T18:53:01.257Z,10.23
2019-03-26T18:55:29.677Z,10.68
2019-03-26T18:57:58.097Z,8.73
2019-03-26T19:00:32.988Z,9.65
2019-03-26T19:03:01.806Z,9.65
2019-03-26T19:05:30.210Z,14.35
2019-03-26T19:07:59.265Z,10.32
2019-03-26T19:10:33.119Z,10.55
2019-03-26T19:13:01.946Z,11.60
2019-03-26T19:15:30.349Z,11.30
2019-03-26T19:17:58.760Z,9.05
2019-03-26T19:20:27.167Z,9.80
2019-03-26T19:22:55.579Z,11.00
2019-03-26T19:25:24.007Z,12.20
2019-03-26T19:27:52.445Z,10.65
2019-03-26T19:30:21.027Z,11.80
2019-03-26T19:32:49.600Z,14.65
2019-03-26T19:35:18.410Z,12.63
2019-03-26T19:37:46.825Z,10.85
2019-03-26T19:40:15.266Z,15.08
2019-03-26T19:42:44.033Z,13.90
2019-03-26T19:45:12.458Z,16.55
2019-03-26T19:47:40.883Z,9.28
2019-03-26T19:50:09.277Z,10.65
2019-03-26T19:52:38.287Z,9.70
2019-03-26T19:55:07.082Z,8.58
2019-03-26T19:57:36.049Z,10.23
2019-03-26T20:00:06.083Z,9.50
2019-03-26T20:02:34.520Z,11.93
2019-03-26T20:05:02.933Z,11.10
2019-03-26T20:07:31.359Z,9.08
2019-03-26T20:09:59.767Z,11.78
2019-03-26T20:12:28.196Z,9.45
2019-03-26T20:14:56.604Z,11.08
2019-03-26T20:17:25.033Z,12.18
2019-03-26T20:19:53.763Z,9.78
2019-03-26T20:22:22.175Z,8.85
2019-03-26T20:24:50.584Z,10.53
2019-03-26T20:27:19.012Z,8.40
2019-03-26T20:29:48.320Z,11.85
2019-03-26T20:32:16.837Z,14.03
2019-03-26T20:34:45.339Z,13.40
2019-03-26T20:37:14.048Z,11.65
2019-03-26T20:39:42.506Z,14.83
2019-03-26T20:42:11.177Z,11.25
2019-03-26T20:44:39.881Z,11.85
2019-03-26T20:47:08.359Z,11.30
2019-03-26T20:49:36.764Z,13.13
2019-03-26T20:52:05.194Z,11.20
2019-03-26T20:54:33.929Z,13.32
2019-03-26T20:57:02.389Z,8.40
2019-03-26T20:59:31.045Z,11.35
2019-03-26T21:01:59.811Z,7.78
2019-03-26T21:04:28.503Z,8.75
2019-03-26T21:06:56.901Z,10.32
2019-03-26T21:09:25.308Z,14.18
2019-03-26T21:11:53.730Z,15.15
2019-03-26T21:17:33.618Z,10.60
2019-03-26T21:20:02.252Z,10.85
2019-03-26T21:22:30.748Z,11.30
2019-03-26T21:24:59.216Z,9.03
2019-03-26T21:27:27.631Z,9.98
2019-03-26T21:30:09.605Z,12.45
2019-03-26T21:32:26.192Z,11.22
2019-03-26T21:34:55.026Z,13.13
2019-03-26T21:37:23.620Z,11.88
2019-03-26T21:39:52.046Z,15.25
2019-03-26T21:42:20.503Z,11.45
2019-03-26T21:44:48.986Z,12.82
2019-03-26T21:47:17.780Z,12.70
2019-03-26T21:49:48.530Z,11.18
2019-03-26T21:52:16.345Z,12.05
2019-03-26T21:54:44.819Z,14.03
2019-03-26T21:57:13.582Z,11.43
2019-03-26T21:59:42.000Z,12.68
2019-03-26T22:02:10.704Z,9.48
2019-03-26T22:04:39.112Z,12.05
2019-03-26T22:07:07.833Z,11.65
2019-03-26T22:09:36.528Z,10.72
2019-03-26T22:12:04.933Z,14.85
2019-03-26T22:14:33.644Z,8.93
2019-03-26T22:17:02.055Z,11.63
2019-03-26T22:19:30.464Z,9.25
2019-03-26T22:21:58.877Z,11.55
2019-03-26T22:24:33.377Z,14.25
2019-03-26T22:30:25.468Z,9.15
2019-03-26T22:32:54.136Z,15.15
2019-03-26T22:35:25.616Z,11.85
2019-03-26T22:41:48.006Z,12.47
2019-03-26T22:44:16.416Z,10.35
2019-03-26T22:46:44.840Z,12.60
2019-03-26T22:49:13.604Z,15.00
2019-03-26T22:51:42.109Z,15.40
2019-03-26T22:54:10.825Z,11.48
2019-03-26T22:56:39.501Z,16.23
2019-03-26T22:59:07.919Z,11.97
2019-03-26T23:01:36.646Z,11.80
2019-03-26T23:04:05.096Z,12.58
2019-03-26T23:06:33.508Z,12.18
2019-03-26T23:09:01.905Z,9.90
2019-03-26T23:11:30.306Z,12.30
2019-03-26T23:13:58.736Z,15.13
2019-03-26T23:16:27.148Z,13.20
2019-03-26T23:18:55.576Z,12.98
2019-03-26T23:21:24.006Z,12.68
2019-03-26T23:23:52.421Z,17.12
2019-03-26T23:26:20.840Z,15.63
2019-03-26T23:28:49.236Z,13.40
2019-03-26T23:31:17.660Z,8.15
2019-03-26T23:33:46.081Z,20.05
2019-03-26T23:36:14.860Z,12.90
2019-03-26T23:38:43.617Z,17.65
2019-03-26T23:41:12.059Z,13.05
2019-03-26T23:43:40.467Z,10.85
2019-03-26T23:46:08.879Z,14.50
2019-03-26T23:48:37.296Z,17.07
2019-03-26T23:51:05.705Z,15.63
2019-03-26T23:53:34.109Z,11.78
2019-03-26T23:56:02.893Z,16.05
2019-03-26T23:58:31.364Z,14.40
